Time;durP1;ratioP1;P1;durP2;ratioP2;P2;SDS_P1;SDS_P2;PMS_P1;PMS_P2;Temp;Humidity;BMP_temperature;BMP_pressure;BME280_temperature;BME280_humidity;BME280_pressure;Samples;Min_cycle;Max_cycle;Signal;HPM_P1;HPM_P2
2021/01/30 00:00:04;;;;;;;19.13;16.05;;;;;;;;;;5095077;28;20051;-49
2021/01/30 00:02:31;;;;;;;18.83;16.52;;;;;;;;;;5091620;28;20036;-47
2021/01/30 00:04:58;;;;;;;19.30;16.52;;;;;;;;;;5094864;28;20043;-46
2021/01/30 00:07:25;;;;;;;18.63;16.60;;;;;;;;;;5095431;28;20040;-46
2021/01/30 00:09:52;;;;;;;19.70;16.45;;;;;;;;;;5092207;28;20538;-48
2021/01/30 00:12:19;;;;;;;18.27;16.05;;;;;;;;;;5105696;28;20047;-50
2021/01/30 00:14:45;;;;;;;19.23;17.17;;;;;;;;;;5115635;28;20031;-45
2021/01/30 00:17:12;;;;;;;18.00;15.45;;;;;;;;;;5115521;28;20039;-49
2021/01/30 00:19:39;;;;;;;21.35;16.80;;;;;;;;;;5106076;28;20040;-47
2021/01/30 00:22:10;;;;;;;19.75;17.15;;;;;;;;;;5095089;28;20070;-47
2021/01/30 00:24:43;;;;;;;19.05;16.45;;;;;;;;;;5095221;28;20036;-49
2021/01/30 00:27:12;;;;;;;18.95;16.90;;;;;;;;;;5095029;28;20361;-46
2021/01/30 00:29:39;;;;;;;21.27;18.05;;;;;;;;;;5115094;28;20355;-48
2021/01/30 00:32:07;;;;;;;18.75;15.98;;;;;;;;;;5108762;28;20044;-47
2021/01/30 00:34:35;;;;;;;18.35;15.95;;;;;;;;;;5077011;28;20043;-45
2021/01/30 00:37:05;;;;;;;19.95;15.80;;;;;;;;;;5092273;28;20048;-46
2021/01/30 00:39:33;;;;;;;16.88;14.50;;;;;;;;;;5119072;28;20450;-53
2021/01/30 00:41:59;;;;;;;15.15;13.55;;;;;;;;;;5118787;28;20043;-47
2021/01/30 00:44:28;;;;;;;14.75;12.50;;;;;;;;;;5119277;28;20062;-46
2021/01/30 00:46:55;;;;;;;15.93;14.10;;;;;;;;;;5117384;28;20037;-46
2021/01/30 00:49:22;;;;;;;12.35;10.45;;;;;;;;;;5098430;28;20044;-49
2021/01/30 00:51:48;;;;;;;14.25;11.15;;;;;;;;;;5098739;28;20055;-48
2021/01/30 00:54:15;;;;;;;14.57;12.20;;;;;;;;;;5098734;28;20039;-46
2021/01/30 00:56:42;;;;;;;13.30;11.18;;;;;;;;;;5097797;28;20048;-47
2021/01/30 00:59:10;;;;;;;13.50;11.68;;;;;;;;;;5098084;28;20173;-46
2021/01/30 01:01:38;;;;;;;15.35;12.70;;;;;;;;;;5080569;28;20386;-46
2021/01/30 01:04:08;;;;;;;14.77;12.00;;;;;;;;;;5080783;28;20032;-47
2021/01/30 01:06:34;;;;;;;17.20;14.32;;;;;;;;;;5098477;28;20047;-46
2021/01/30 01:09:01;;;;;;;27.13;19.83;;;;;;;;;;5098031;28;20047;-48
2021/01/30 01:11:28;;;;;;;22.80;16.20;;;;;;;;;;5106458;28;20043;-46
2021/01/30 01:13:55;;;;;;;12.63;11.23;;;;;;;;;;5118796;28;20066;-48
2021/01/30 01:16:22;;;;;;;453.48;400.92;;;;;;;;;;5118742;28;20043;-47
2021/01/30 01:18:49;;;;;;;33.65;29.35;;;;;;;;;;5112952;28;20047;-48
2021/01/30 01:21:15;;;;;;;67.25;60.45;;;;;;;;;;5077664;28;20037;-48
2021/01/30 01:23:42;;;;;;;16.42;14.50;;;;;;;;;;5077987;28;20473;-46
2021/01/30 01:26:10;;;;;;;16.27;14.48;;;;;;;;;;5077961;28;20041;-46
2021/01/30 01:28:36;;;;;;;19.05;14.25;;;;;;;;;;5092176;28;20043;-47
2021/01/30 01:31:07;;;;;;;15.35;13.38;;;;;;;;;;5097592;28;20070;-46
2021/01/30 01:33:33;;;;;;;24.20;21.70;;;;;;;;;;5098025;28;20039;-47
2021/01/30 01:36:00;;;;;;;20.65;17.98;;;;;;;;;;5098018;28;20048;-48
2021/01/30 01:38:27;;;;;;;21.85;18.27;;;;;;;;;;5097569;28;20040;-47
2021/01/30 01:40:54;;;;;;;22.77;18.95;;;;;;;;;;5097209;28;20435;-47
2021/01/30 01:43:23;;;;;;;22.17;18.15;;;;;;;;;;5114637;28;20044;-45
2021/01/30 01:46:08;;;;;;;21.08;18.17;;;;;;;;;;5117414;28;20039;-47
2021/01/30 01:48:38;;;;;;;23.55;19.58;;;;;;;;;;5104000;28;20036;-47
2021/01/30 01:51:06;;;;;;;23.45;19.15;;;;;;;;;;5082273;28;20033;-46
2021/01/30 01:53:35;;;;;;;23.13;19.67;;;;;;;;;;5077400;28;20047;-46
2021/01/30 01:56:05;;;;;;;24.33;20.67;;;;;;;;;;5077369;28;20478;-47
2021/01/30 01:58:34;;;;;;;28.42;23.70;;;;;;;;;;5089715;28;20036;-46
2021/01/30 02:01:01;;;;;;;35.75;27.85;;;;;;;;;;5097099;28;20473;-46
2021/01/30 02:03:28;;;;;;;37.88;32.80;;;;;;;;;;5097437;28;20039;-46
2021/01/30 02:05:55;;;;;;;38.88;33.30;;;;;;;;;;5097349;28;20047;-48
2021/01/30 02:08:23;;;;;;;42.33;33.58;;;;;;;;;;5096937;28;20351;-45
2021/01/30 02:10:51;;;;;;;44.55;36.55;;;;;;;;;;5096765;28;20036;-47
2021/01/30 02:13:20;;;;;;;46.95;38.92;;;;;;;;;;5113504;28;20047;-48
2021/01/30 02:15:48;;;;;;;46.60;38.67;;;;;;;;;;5117641;28;20040;-47
2021/01/30 02:18:21;;;;;;;43.75;37.35;;;;;;;;;;5103780;28;20051;-47
2021/01/30 02:21:08;;;;;;;49.20;39.38;;;;;;;;;;5096682;28;20118;-48
2021/01/30 02:23:34;;;;;;;44.97;38.17;;;;;;;;;;5096964;28;20058;-48
2021/01/30 02:26:10;;;;;;;46.55;37.33;;;;;;;;;;5096859;28;20039;-46
2021/01/30 02:28:56;;;;;;;44.63;37.65;;;;;;;;;;5096599;28;20039;-47
2021/01/30 02:31:41;;;;;;;41.40;35.20;;;;;;;;;;5096585;28;20036;-49
2021/01/30 02:34:22;;;;;;;42.33;35.28;;;;;;;;;;5096547;28;20320;-46
2021/01/30 02:36:52;;;;;;;41.92;34.30;;;;;;;;;;5096738;28;20035;-48
2021/01/30 02:39:25;;;;;;;41.13;34.75;;;;;;;;;;5096295;28;20043;-48
2021/01/30 02:42:07;;;;;;;40.13;33.80;;;;;;;;;;5100461;28;20039;-51
2021/01/30 02:44:36;;;;;;;39.00;32.63;;;;;;;;;;5096567;28;20036;-45
2021/01/30 02:47:03;;;;;;;38.25;32.75;;;;;;;;;;5096246;28;20036;-47
2021/01/30 02:49:32;;;;;;;37.95;33.20;;;;;;;;;;5096133;28;20044;-48
2021/01/30 02:52:05;;;;;;;38.85;33.83;;;;;;;;;;5096349;28;20493;-48
2021/01/30 02:54:36;;;;;;;39.95;35.45;;;;;;;;;;5096363;28;20480;-46
2021/01/30 02:57:06;;;;;;;40.63;34.67;;;;;;;;;;5095569;28;20051;-45
2021/01/30 02:59:33;;;;;;;40.45;35.10;;;;;;;;;;5095775;28;20047;-45
2021/01/30 03:02:00;;;;;;;41.35;35.95;;;;;;;;;;5096210;28;20052;-46
2021/01/30 03:04:29;;;;;;;41.88;36.38;;;;;;;;;;5096199;28;20036;-45
2021/01/30 03:07:01;;;;;;;44.08;35.92;;;;;;;;;;5096249;28;20040;-47
2021/01/30 03:09:41;;;;;;;40.00;35.63;;;;;;;;;;5095805;28;20051;-49
2021/01/30 03:12:37;;;;;;;37.38;32.95;;;;;;;;;;5102230;28;20450;-47
2021/01/30 03:15:10;;;;;;;39.42;33.67;;;;;;;;;;5077048;28;20493;-45
2021/01/30 03:17:38;;;;;;;38.85;33.70;;;;;;;;;;5080037;28;20044;-48
2021/01/30 03:20:05;;;;;;;34.55;30.85;;;;;;;;;;5089267;28;20051;-48
2021/01/30 03:22:32;;;;;;;35.55;31.45;;;;;;;;;;5095840;28;20036;-46
2021/01/30 03:24:59;;;;;;;34.63;30.92;;;;;;;;;;5095739;28;20316;-46
2021/01/30 03:27:27;;;;;;;32.47;29.00;;;;;;;;;;5095853;28;20351;-46
2021/01/30 03:29:55;;;;;;;32.90;29.38;;;;;;;;;;5095414;28;20374;-46
2021/01/30 03:32:22;;;;;;;33.35;29.70;;;;;;;;;;5095595;28;20036;-46
2021/01/30 03:34:50;;;;;;;35.22;30.77;;;;;;;;;;5095762;28;20051;-47
2021/01/30 03:37:17;;;;;;;32.88;29.35;;;;;;;;;;5095585;28;20079;-46
2021/01/30 03:39:44;;;;;;;34.97;30.35;;;;;;;;;;5095276;28;20394;-46
2021/01/30 03:42:11;;;;;;;34.17;30.50;;;;;;;;;;5102376;28;20043;-48
2021/01/30 03:44:37;;;;;;;35.40;31.55;;;;;;;;;;5115365;28;20034;-46
2021/01/30 03:47:05;;;;;;;33.55;29.95;;;;;;;;;;5115871;28;20051;-45
2021/01/30 03:49:31;;;;;;;33.63;30.02;;;;;;;;;;5107013;28;20044;-48
2021/01/30 03:51:58;;;;;;;32.25;28.92;;;;;;;;;;5095335;28;20044;-48
2021/01/30 03:54:25;;;;;;;34.00;30.23;;;;;;;;;;5076563;28;20044;-47
2021/01/30 03:56:52;;;;;;;30.83;27.52;;;;;;;;;;5075215;28;20037;-48
2021/01/30 03:59:20;;;;;;;31.02;27.83;;;;;;;;;;5081110;28;20048;-46
2021/01/30 04:01:47;;;;;;;30.50;27.30;;;;;;;;;;5095228;28;20047;-48
2021/01/30 04:04:14;;;;;;;27.10;24.20;;;;;;;;;;5095402;28;20043;-45
2021/01/30 04:06:46;;;;;;;25.90;23.25;;;;;;;;;;5095374;28;20051;-48
2021/01/30 04:09:13;;;;;;;26.83;24.08;;;;;;;;;;5087472;28;20044;-48
2021/01/30 04:11:41;;;;;;;25.23;22.55;;;;;;;;;;5101779;28;20043;-46
2021/01/30 04:14:07;;;;;;;24.55;22.00;;;;;;;;;;5119941;28;20054;-46
2021/01/30 04:16:34;;;;;;;24.67;22.15;;;;;;;;;;5119869;28;20043;-48
2021/01/30 04:19:01;;;;;;;25.10;22.50;;;;;;;;;;5115960;28;20438;-47
2021/01/30 04:21:28;;;;;;;25.67;22.88;;;;;;;;;;5091852;28;20041;-46
2021/01/30 04:23:55;;;;;;;25.38;22.67;;;;;;;;;;5079145;28;20047;-45
2021/01/30 04:26:22;;;;;;;25.95;23.25;;;;;;;;;;5079181;28;20036;-49
2021/01/30 04:28:49;;;;;;;24.17;21.67;;;;;;;;;;5079911;28;20032;-47
2021/01/30 04:31:16;;;;;;;23.75;21.35;;;;;;;;;;5098961;28;20051;-47
2021/01/30 04:33:44;;;;;;;23.13;20.73;;;;;;;;;;5099188;28;20454;-49
2021/01/30 04:36:12;;;;;;;21.90;19.60;;;;;;;;;;5099094;28;20442;-47
2021/01/30 04:38:39;;;;;;;22.98;20.67;;;;;;;;;;5098960;28;20366;-46
2021/01/30 04:41:26;;;;;;;22.25;19.90;;;;;;;;;;5098428;28;20055;-45
2021/01/30 04:43:57;;;;;;;21.40;19.17;;;;;;;;;;5098341;28;20032;-46
2021/01/30 04:46:24;;;;;;;20.60;18.42;;;;;;;;;;5119455;28;20036;-45
2021/01/30 04:49:10;;;;;;;20.58;18.17;;;;;;;;;;5118027;28;20465;-47
2021/01/30 04:51:40;;;;;;;19.55;17.45;;;;;;;;;;5098562;28;20118;-47
2021/01/30 04:54:13;;;;;;;19.25;17.35;;;;;;;;;;5098810;28;20059;-49
2021/01/30 04:56:55;;;;;;;18.95;16.95;;;;;;;;;;5064774;28;20028;-49
2021/01/30 04:59:22;;;;;;;20.20;18.17;;;;;;;;;;5082829;28;20047;-47
2021/01/30 05:01:58;;;;;;;21.23;19.02;;;;;;;;;;5098413;28;20032;-47
2021/01/30 05:04:31;;;;;;;24.48;21.88;;;;;;;;;;5098575;28;20043;-45
2021/01/30 05:07:16;;;;;;;25.08;22.48;;;;;;;;;;5098587;28;20039;-47
2021/01/30 05:09:52;;;;;;;24.35;21.85;;;;;;;;;;5098195;28;20045;-50
2021/01/30 05:12:23;;;;;;;24.98;22.38;;;;;;;;;;5106179;28;20366;-49
2021/01/30 05:15:11;;;;;;;24.40;21.90;;;;;;;;;;5118820;28;20048;-46
2021/01/30 05:17:44;;;;;;;23.33;20.98;;;;;;;;;;5119059;28;20047;-48
2021/01/30 05:20:11;;;;;;;24.05;21.45;;;;;;;;;;5106377;28;20044;-47
2021/01/30 05:22:44;;;;;;;24.27;21.77;;;;;;;;;;5098135;28;20040;-45
2021/01/30 05:25:12;;;;;;;22.73;20.42;;;;;;;;;;5098373;28;20051;-47
2021/01/30 05:27:46;;;;;;;23.25;20.85;;;;;;;;;;5098142;28;20032;-47
2021/01/30 05:30:19;;;;;;;21.73;19.52;;;;;;;;;;5097686;28;20454;-49
2021/01/30 05:33:04;;;;;;;22.05;19.75;;;;;;;;;;5097910;28;20040;-45
2021/01/30 05:35:35;;;;;;;20.40;18.35;;;;;;;;;;5098064;28;20047;-46
2021/01/30 05:38:05;;;;;;;18.98;16.98;;;;;;;;;;5097933;28;20427;-46
2021/01/30 05:40:32;;;;;;;19.50;17.23;;;;;;;;;;5097189;28;20177;-47
2021/01/30 05:43:14;;;;;;;16.38;14.77;;;;;;;;;;5111446;28;20042;-50
2021/01/30 05:45:47;;;;;;;15.85;14.23;;;;;;;;;;5118337;28;20039;-45
2021/01/30 05:48:20;;;;;;;15.52;14.02;;;;;;;;;;5118383;28;20043;-46
2021/01/30 05:50:55;;;;;;;15.93;14.30;;;;;;;;;;5100783;28;20352;-44
2021/01/30 05:53:23;;;;;;;15.15;13.55;;;;;;;;;;5118237;28;20055;-48
2021/01/30 05:55:50;;;;;;;14.50;13.00;;;;;;;;;;5117981;28;20046;-47
2021/01/30 05:58:19;;;;;;;13.68;12.23;;;;;;;;;;5117856;28;20461;-46
2021/01/30 06:00:46;;;;;;;14.15;12.73;;;;;;;;;;5102464;28;20431;-45
2021/01/30 06:03:13;;;;;;;14.65;13.05;;;;;;;;;;5097284;28;20047;-45
2021/01/30 06:05:45;;;;;;;15.18;13.52;;;;;;;;;;5097326;28;20371;-46
2021/01/30 06:08:12;;;;;;;14.40;13.00;;;;;;;;;;5085092;28;20347;-47
2021/01/30 06:10:39;;;;;;;14.50;13.13;;;;;;;;;;5077155;28;20052;-54
2021/01/30 06:13:26;;;;;;;14.43;12.93;;;;;;;;;;5090224;28;20040;-45
2021/01/30 06:15:55;;;;;;;13.73;12.23;;;;;;;;;;5093360;28;20332;-46
2021/01/30 06:18:33;;;;;;;11.55;10.45;;;;;;;;;;5094594;28;20435;-43
2021/01/30 06:21:10;;;;;;;10.82;9.73;;;;;;;;;;5089495;28;20359;-45
2021/01/30 06:23:37;;;;;;;9.80;8.80;;;;;;;;;;5089135;28;20040;-43
2021/01/30 06:26:05;;;;;;;9.73;8.48;;;;;;;;;;5092793;28;20461;-45
2021/01/30 06:28:34;;;;;;;9.07;8.15;;;;;;;;;;5081391;28;20032;-43
2021/01/30 06:31:25;;;;;;;7.00;6.25;;;;;;;;;;5094751;28;20044;-44
2021/01/30 06:33:56;;;;;;;5.55;4.90;;;;;;;;;;5090301;28;20044;-50
2021/01/30 06:36:25;;;;;;;4.70;3.97;;;;;;;;;;5086618;28;20052;-47
2021/01/30 06:39:09;;;;;;;4.75;4.15;;;;;;;;;;5096152;28;20040;-56
2021/01/30 06:41:37;;;;;;;4.60;3.60;;;;;;;;;;5095191;28;20040;-50
2021/01/30 06:44:04;;;;;;;3.80;3.13;;;;;;;;;;5100312;28;20041;-47
2021/01/30 06:46:31;;;;;;;3.70;3.28;;;;;;;;;;5090143;28;20040;-56
2021/01/30 06:49:13;;;;;;;3.92;3.53;;;;;;;;;;5091449;28;20458;-51
2021/01/30 06:51:40;;;;;;;;;;;;;;;;;;5095586;28;20044;-51
2021/01/30 06:54:21;;;;;;;5.22;3.60;;;;;;;;;;5084755;28;20231;-50
2021/01/30 06:57:02;;;;;;;5.20;4.35;;;;;;;;;;5082386;28;20358;-51
2021/01/30 06:59:32;;;;;;;5.65;4.82;;;;;;;;;;5089880;28;20122;-50
2021/01/30 07:01:59;;;;;;;6.75;5.22;;;;;;;;;;5089780;28;20359;-52
2021/01/30 07:04:26;;;;;;;3.70;3.33;;;;;;;;;;5093768;28;20039;-49
2021/01/30 07:07:16;;;;;;;4.70;4.18;;;;;;;;;;5088158;28;20040;-49
2021/01/30 07:09:53;;;;;;;6.78;5.20;;;;;;;;;;5085766;28;20368;-51
2021/01/30 07:12:20;;;;;;;5.45;4.53;;;;;;;;;;5086987;28;20447;-53
2021/01/30 07:14:46;;;;;;;5.40;4.57;;;;;;;;;;5090000;28;20046;-49
2021/01/30 07:17:19;;;;;;;5.32;4.63;;;;;;;;;;5090420;28;20055;-51
2021/01/30 07:19:46;;;;;;;5.85;4.78;;;;;;;;;;5089648;28;20047;-50
2021/01/30 07:22:16;;;;;;;5.95;4.60;;;;;;;;;;5089548;28;20040;-50
2021/01/30 07:24:50;;;;;;;5.03;3.90;;;;;;;;;;5087995;28;20044;-52
2021/01/30 07:27:23;;;;;;;3.92;3.28;;;;;;;;;;5084971;28;20040;-53
2021/01/30 07:29:49;;;;;;;;;;;;;;;;;;5092633;28;20391;-51
2021/01/30 07:32:27;;;;;;;4.32;3.10;;;;;;;;;;5092687;28;19915;-51
2021/01/30 07:34:57;;;;;;;5.30;3.45;;;;;;;;;;5088530;28;20071;-54
2021/01/30 07:37:39;;;;;;;4.32;3.40;;;;;;;;;;5087887;28;20044;-59
2021/01/30 07:40:08;;;;;;;4.32;3.20;;;;;;;;;;5089095;28;20371;-51
2021/01/30 07:42:39;;;;;;;3.33;2.90;;;;;;;;;;5099415;28;20036;-51
2021/01/30 07:45:06;;;;;;;3.40;3.00;;;;;;;;;;5094455;28;20047;-52
2021/01/30 07:47:52;;;;;;;5.65;4.47;;;;;;;;;;5096142;28;20358;-50
2021/01/30 07:50:28;;;;;;;4.13;3.40;;;;;;;;;;5092143;28;20040;-58
2021/01/30 07:52:58;;;;;;;4.45;3.63;;;;;;;;;;5090186;28;20043;-50
2021/01/30 07:55:25;;;;;;;4.32;3.30;;;;;;;;;;5089847;28;20047;-51
2021/01/30 07:57:56;;;;;;;3.83;2.53;;;;;;;;;;5095015;28;20048;-53
2021/01/30 08:00:30;;;;;;;3.80;3.10;;;;;;;;;;5093263;28;20063;-50
2021/01/30 08:03:06;;;;;;;3.78;3.10;;;;;;;;;;5088788;28;20043;-52
2021/01/30 08:05:33;;;;;;;4.28;3.80;;;;;;;;;;5075157;28;20041;-52
2021/01/30 08:08:15;;;;;;;5.20;4.53;;;;;;;;;;5091906;28;20040;-51
2021/01/30 08:10:48;;;;;;;5.22;3.53;;;;;;;;;;5092378;28;20044;-51
2021/01/30 08:13:20;;;;;;;4.53;3.90;;;;;;;;;;5091222;28;20048;-51
2021/01/30 08:15:49;;;;;;;5.10;3.88;;;;;;;;;;5087045;28;20044;-50
2021/01/30 08:18:36;;;;;;;7.03;5.90;;;;;;;;;;5095384;28;20480;-51
2021/01/30 08:21:08;;;;;;;7.80;6.00;;;;;;;;;;5094511;28;20051;-52
2021/01/30 08:23:35;;;;;;;9.35;6.70;;;;;;;;;;5078039;28;20044;-51
2021/01/30 08:26:07;;;;;;;6.97;4.70;;;;;;;;;;5074930;28;20041;-53
2021/01/30 08:28:39;;;;;;;5.38;4.13;;;;;;;;;;5074668;28;20040;-50
2021/01/30 08:31:06;;;;;;;9.05;6.50;;;;;;;;;;5075514;28;20044;-52
2021/01/30 08:33:51;;;;;;;11.23;6.85;;;;;;;;;;5074895;28;20044;-52
2021/01/30 08:36:32;;;;;;;8.38;5.70;;;;;;;;;;5074931;28;20051;-50
2021/01/30 08:39:05;;;;;;;9.35;5.95;;;;;;;;;;5074742;28;20061;-50
2021/01/30 08:41:43;;;;;;;5.78;4.13;;;;;;;;;;5083291;28;20043;-50
2021/01/30 08:44:40;;;;;;;5.53;4.57;;;;;;;;;;5074972;28;20033;-50
2021/01/30 08:47:08;;;;;;;6.47;4.20;;;;;;;;;;5062079;28;20456;-50
2021/01/30 08:49:35;;;;;;;6.00;4.85;;;;;;;;;;5074669;28;20044;-51
2021/01/30 08:52:14;;;;;;;7.47;6.35;;;;;;;;;;5084763;28;20044;-51
2021/01/30 08:54:42;;;;;;;9.27;6.38;;;;;;;;;;5095384;28;20040;-50
2021/01/30 08:57:29;;;;;;;9.98;7.07;;;;;;;;;;5098639;28;20051;-50
2021/01/30 08:59:57;;;;;;;7.00;4.90;;;;;;;;;;5084691;28;20371;-52
2021/01/30 09:02:29;;;;;;;8.35;4.90;;;;;;;;;;5098271;28;20043;-50
2021/01/30 09:04:59;;;;;;;7.50;4.68;;;;;;;;;;5095358;28;20044;-51
2021/01/30 09:07:35;;;;;;;13.55;8.15;;;;;;;;;;5078321;28;20044;-52
2021/01/30 09:10:21;;;;;;;13.82;8.27;;;;;;;;;;5078047;28;20036;-50
2021/01/30 09:12:55;;;;;;;9.88;6.35;;;;;;;;;;5088657;28;20044;-52
2021/01/30 09:15:40;;;;;;;9.77;6.63;;;;;;;;;;5081747;28;20052;-52
2021/01/30 09:18:22;;;;;;;11.38;6.75;;;;;;;;;;5078035;28;20383;-52
2021/01/30 09:20:57;;;;;;;10.70;6.55;;;;;;;;;;5077755;28;20363;-50
2021/01/30 09:23:27;;;;;;;12.27;7.68;;;;;;;;;;5077859;28;20044;-52
2021/01/30 09:26:01;;;;;;;8.30;5.20;;;;;;;;;;5077977;28;20033;-50
2021/01/30 09:28:29;;;;;;;10.85;6.65;;;;;;;;;;5077830;28;20036;-53
2021/01/30 09:31:00;;;;;;;9.20;5.75;;;;;;;;;;5077752;28;20359;-50
2021/01/30 09:33:38;;;;;;;;;;;;;;;;;;5082756;28;20047;-50
2021/01/30 09:36:10;;;;;;;9.32;7.10;;;;;;;;;;5097622;28;20238;-43
2021/01/30 09:38:45;;;;;;;10.70;7.78;;;;;;;;;;5097755;28;20044;-45
2021/01/30 09:41:21;;;;;;;11.77;7.47;;;;;;;;;;5084692;28;20379;-44
2021/01/30 09:43:49;;;;;;;10.77;7.38;;;;;;;;;;5097806;28;20039;-44
2021/01/30 09:46:19;;;;;;;8.23;6.60;;;;;;;;;;5097850;28;20039;-46
2021/01/30 09:48:46;;;;;;;10.35;9.15;;;;;;;;;;5085781;28;20044;-43
2021/01/30 09:51:13;;;;;;;13.73;10.88;;;;;;;;;;5078615;28;20040;-47
2021/01/30 09:53:48;;;;;;;16.77;12.90;;;;;;;;;;5079044;28;20055;-59
2021/01/30 09:56:21;;;;;;;13.02;10.85;;;;;;;;;;5077545;28;20056;-45
2021/01/30 09:58:52;;;;;;;11.88;9.98;;;;;;;;;;5072499;28;20052;-60
2021/01/30 10:01:25;;;;;;;9.55;7.88;;;;;;;;;;5077102;28;20439;-51
2021/01/30 10:03:53;;;;;;;7.65;6.65;;;;;;;;;;5077240;28;20459;-44
2021/01/30 10:06:31;;;;;;;7.95;5.95;;;;;;;;;;5076668;28;20052;-47
2021/01/30 10:09:12;;;;;;;7.28;6.05;;;;;;;;;;5077079;28;20036;-51
2021/01/30 10:11:40;;;;;;;5.60;4.60;;;;;;;;;;5085319;28;20429;-53
2021/01/30 10:14:07;;;;;;;8.55;4.00;;;;;;;;;;5091764;28;20044;-53
2021/01/30 10:16:34;;;;;;;4.00;3.60;;;;;;;;;;5076965;28;20047;-52
2021/01/30 10:19:02;;;;;;;4.28;3.35;;;;;;;;;;5076915;28;20466;-48
2021/01/30 10:21:31;;;;;;;4.68;3.78;;;;;;;;;;5076972;28;20044;-50
2021/01/30 10:23:58;;;;;;;8.27;5.93;;;;;;;;;;5082430;28;20040;-68
2021/01/30 10:26:28;;;;;;;7.45;5.70;;;;;;;;;;5081501;28;20052;-57
2021/01/30 10:29:03;;;;;;;5.10;4.07;;;;;;;;;;5077067;28;20051;-46
2021/01/30 10:31:36;;;;;;;5.72;4.50;;;;;;;;;;5076566;28;20036;-46
2021/01/30 10:34:06;;;;;;;5.97;4.63;;;;;;;;;;5086637;28;20362;-45
2021/01/30 10:36:36;;;;;;;4.95;3.92;;;;;;;;;;5091048;28;20040;-44
2021/01/30 10:39:04;;;;;;;5.85;3.92;;;;;;;;;;5090128;28;20060;-44
2021/01/30 10:41:31;;;;;;;5.15;4.13;;;;;;;;;;5094081;28;20040;-50
2021/01/30 10:44:00;;;;;;;4.45;3.42;;;;;;;;;;5096722;28;20036;-58
2021/01/30 10:46:30;;;;;;;6.47;5.18;;;;;;;;;;5086733;28;20446;-49
2021/01/30 10:49:05;;;;;;;4.63;3.38;;;;;;;;;;5094515;28;20043;-47
2021/01/30 10:51:34;;;;;;;3.78;3.08;;;;;;;;;;5095088;28;20051;-67
2021/01/30 10:54:11;;;;;;;3.90;3.05;;;;;;;;;;5077684;28;20052;-73
2021/01/30 10:56:38;;;;;;;3.80;3.20;;;;;;;;;;5095712;28;20036;-62
2021/01/30 10:59:21;;;;;;;4.68;3.33;;;;;;;;;;5095340;28;20036;-47
2021/01/30 11:01:47;;;;;;;5.05;3.95;;;;;;;;;;5086514;28;20431;-46
2021/01/30 11:04:24;;;;;;;4.32;3.45;;;;;;;;;;5095996;28;20043;-43
2021/01/30 11:06:56;;;;;;;3.97;3.53;;;;;;;;;;5095307;28;20036;-43
2021/01/30 11:09:33;;;;;;;3.90;3.05;;;;;;;;;;5095926;28;20470;-51
2021/01/30 11:12:09;;;;;;;3.90;3.35;;;;;;;;;;5082804;28;20037;-43
2021/01/30 11:14:37;;;;;;;5.05;3.47;;;;;;;;;;5092136;28;20370;-72
2021/01/30 11:17:04;;;;;;;4.25;3.45;;;;;;;;;;5105288;28;20044;-45
2021/01/30 11:19:34;;;;;;;5.32;4.22;;;;;;;;;;5094952;28;20043;-49
2021/01/30 11:22:04;;;;;;;5.28;4.47;;;;;;;;;;5089316;28;20040;-61
2021/01/30 11:24:33;;;;;;;5.28;4.35;;;;;;;;;;5056771;28;20036;-69
2021/01/30 11:27:00;;;;;;;6.85;5.15;;;;;;;;;;5078125;28;20359;-43
2021/01/30 11:29:41;;;;;;;5.43;4.57;;;;;;;;;;5094802;28;20114;-45
2021/01/30 11:32:10;;;;;;;6.75;5.10;;;;;;;;;;5094892;28;20082;-42
2021/01/30 11:34:38;;;;;;;6.20;5.30;;;;;;;;;;5095652;28;20070;-41
2021/01/30 11:37:05;;;;;;;6.05;5.45;;;;;;;;;;5095229;28;20332;-45
2021/01/30 11:39:33;;;;;;;5.47;4.50;;;;;;;;;;5095534;28;20052;-46
2021/01/30 11:42:00;;;;;;;4.63;4.20;;;;;;;;;;5077903;28;20048;-61
2021/01/30 11:44:27;;;;;;;5.18;3.88;;;;;;;;;;5087577;28;20359;-43
2021/01/30 11:46:55;;;;;;;3.90;3.22;;;;;;;;;;5097812;28;20040;-48
2021/01/30 11:49:22;;;;;;;4.18;3.42;;;;;;;;;;5100025;28;20036;-44
2021/01/30 11:51:49;;;;;;;4.93;4.13;;;;;;;;;;5096076;28;20052;-43
2021/01/30 11:54:16;;;;;;;5.80;3.95;;;;;;;;;;5096257;28;20051;-43
2021/01/30 11:56:44;;;;;;;5.20;4.10;;;;;;;;;;5099035;28;20812;-43
2021/01/30 11:59:12;;;;;;;5.70;4.80;;;;;;;;;;5098960;28;20044;-43
2021/01/30 12:01:42;;;;;;;6.40;5.40;;;;;;;;;;5090363;28;20052;-42
2021/01/30 12:04:11;;;;;;;6.15;5.03;;;;;;;;;;5096317;28;20354;-42
2021/01/30 12:06:38;;;;;;;7.32;5.05;;;;;;;;;;5098419;28;20048;-43
2021/01/30 12:09:12;;;;;;;4.70;3.88;;;;;;;;;;5091503;28;20036;-43
2021/01/30 12:11:39;;;;;;;4.32;3.80;;;;;;;;;;5097390;28;20044;-43
2021/01/30 12:14:06;;;;;;;4.35;3.83;;;;;;;;;;5091916;28;20040;-44
2021/01/30 12:16:33;;;;;;;3.42;3.13;;;;;;;;;;5096849;28;20044;-43
2021/01/30 12:19:00;;;;;;;4.30;3.55;;;;;;;;;;5095947;28;20040;-44
2021/01/30 12:21:27;;;;;;;4.13;3.72;;;;;;;;;;5097311;28;20362;-44
2021/01/30 12:23:54;;;;;;;4.00;3.65;;;;;;;;;;5098909;28;20473;-44
2021/01/30 12:26:23;;;;;;;5.15;3.78;;;;;;;;;;5090779;28;20439;-43
2021/01/30 12:28:51;;;;;;;4.82;3.85;;;;;;;;;;5075174;28;20032;-43
2021/01/30 12:31:17;;;;;;;5.22;4.20;;;;;;;;;;5077789;28;20052;-44
2021/01/30 12:33:44;;;;;;;4.78;4.00;;;;;;;;;;5078742;28;20041;-43
2021/01/30 12:36:11;;;;;;;4.10;3.70;;;;;;;;;;5078808;28;20048;-44
2021/01/30 12:38:38;;;;;;;4.05;3.60;;;;;;;;;;5094061;28;20036;-48
2021/01/30 12:41:06;;;;;;;4.65;4.20;;;;;;;;;;5099004;28;20055;-45
2021/01/30 12:43:33;;;;;;;5.57;4.40;;;;;;;;;;5098997;28;20370;-44
2021/01/30 12:45:59;;;;;;;5.30;4.15;;;;;;;;;;5103994;28;20370;-44
2021/01/30 12:48:26;;;;;;;4.80;3.60;;;;;;;;;;5105319;28;20044;-44
2021/01/30 12:50:54;;;;;;;4.82;4.10;;;;;;;;;;5090298;28;20410;-48
2021/01/30 12:53:21;;;;;;;3.30;2.80;;;;;;;;;;5095565;28;20074;-45
2021/01/30 12:55:48;;;;;;;4.18;3.15;;;;;;;;;;5098443;28;20056;-45
2021/01/30 12:58:15;;;;;;;3.10;2.80;;;;;;;;;;5092596;28;20051;-52
2021/01/30 13:00:42;;;;;;;5.20;3.22;;;;;;;;;;5095587;28;20055;-45
2021/01/30 13:03:09;;;;;;;5.43;3.35;;;;;;;;;;5096330;28;20040;-44
2021/01/30 13:05:36;;;;;;;4.30;3.28;;;;;;;;;;5095198;28;20371;-46
2021/01/30 13:08:03;;;;;;;3.80;3.40;;;;;;;;;;5096866;28;20039;-47
2021/01/30 13:10:30;;;;;;;4.63;4.03;;;;;;;;;;5095343;28;20043;-52
2021/01/30 13:12:56;;;;;;;4.75;3.95;;;;;;;;;;5094365;28;20043;-45
2021/01/30 13:15:23;;;;;;;6.80;4.00;;;;;;;;;;5095181;28;20040;-46
2021/01/30 13:17:50;;;;;;;4.78;3.70;;;;;;;;;;5092618;28;20466;-45
2021/01/30 13:20:18;;;;;;;3.92;3.53;;;;;;;;;;5095849;28;20046;-49
2021/01/30 13:22:56;;;;;;;5.47;4.47;;;;;;;;;;5105714;28;20435;-44
2021/01/30 13:25:24;;;;;;;5.53;4.13;;;;;;;;;;5098326;28;20360;-53
2021/01/30 13:27:51;;;;;;;4.13;3.72;;;;;;;;;;5096405;28;20051;-55
2021/01/30 13:30:27;;;;;;;4.20;3.38;;;;;;;;;;5097179;28;20031;-50
2021/01/30 13:32:55;;;;;;;4.13;3.72;;;;;;;;;;5097606;28;20352;-54
2021/01/30 13:35:23;;;;;;;5.55;4.50;;;;;;;;;;5080170;28;20052;-52
2021/01/30 13:37:49;;;;;;;4.03;3.63;;;;;;;;;;5094681;28;20048;-50
2021/01/30 13:40:17;;;;;;;3.58;3.25;;;;;;;;;;5097836;28;20056;-50
2021/01/30 13:42:43;;;;;;;3.97;2.80;;;;;;;;;;5097091;28;20264;-49
2021/01/30 13:45:18;;;;;;;3.58;2.75;;;;;;;;;;5097609;28;20048;-50
2021/01/30 13:47:45;;;;;;;3.10;2.60;;;;;;;;;;5111440;28;20378;-50
2021/01/30 13:50:13;;;;;;;3.42;3.13;;;;;;;;;;5097558;28;20043;-50
2021/01/30 13:52:39;;;;;;;3.70;3.20;;;;;;;;;;5097605;28;20055;-52
2021/01/30 13:55:09;;;;;;;3.97;3.50;;;;;;;;;;5097735;28;20378;-51
2021/01/30 13:57:36;;;;;;;5.05;3.42;;;;;;;;;;5097281;28;20039;-52
2021/01/30 14:00:04;;;;;;;6.22;4.90;;;;;;;;;;5097562;28;20040;-51
2021/01/30 14:02:31;;;;;;;8.40;5.35;;;;;;;;;;5097246;28;20044;-52
2021/01/30 14:04:58;;;;;;;5.72;4.30;;;;;;;;;;5097562;28;20048;-52
2021/01/30 14:07:25;;;;;;;7.45;5.47;;;;;;;;;;5096829;28;20048;-49
2021/01/30 14:09:51;;;;;;;6.60;4.55;;;;;;;;;;5097326;28;20040;-51
2021/01/30 14:12:18;;;;;;;4.80;3.90;;;;;;;;;;5097329;28;20363;-52
2021/01/30 14:14:45;;;;;;;3.97;3.55;;;;;;;;;;5096773;28;20050;-51
2021/01/30 14:17:12;;;;;;;4.55;3.83;;;;;;;;;;5112082;28;20485;-50
2021/01/30 14:19:39;;;;;;;4.85;4.10;;;;;;;;;;5096990;28;20358;-50
2021/01/30 14:22:07;;;;;;;4.95;4.18;;;;;;;;;;5096599;28;20048;-49
2021/01/30 14:24:34;;;;;;;3.33;2.75;;;;;;;;;;5093330;28;20040;-51
2021/01/30 14:27:00;;;;;;;3.10;2.80;;;;;;;;;;5087067;28;20047;-51
2021/01/30 14:29:27;;;;;;;2.97;2.58;;;;;;;;;;5090822;28;20037;-50
2021/01/30 14:32:00;;;;;;;4.88;3.80;;;;;;;;;;5094834;28;20504;-49
2021/01/30 14:34:28;;;;;;;5.00;4.10;;;;;;;;;;5093076;28;20048;-50
2021/01/30 14:36:55;;;;;;;6.55;5.85;;;;;;;;;;5088024;28;20063;-53
2021/01/30 14:39:22;;;;;;;10.77;6.95;;;;;;;;;;5102919;28;20063;-52
2021/01/30 14:41:49;;;;;;;7.88;6.13;;;;;;;;;;5116165;28;20466;-52
2021/01/30 14:44:17;;;;;;;12.48;8.35;;;;;;;;;;5116213;28;20039;-50
2021/01/30 14:46:44;;;;;;;10.57;8.52;;;;;;;;;;5115681;28;20047;-53
2021/01/30 14:49:11;;;;;;;8.30;5.82;;;;;;;;;;5103483;28;20051;-50